createdAt,value
2017-08-09T00:01:11.447Z,5.80
2017-08-09T00:03:39.069Z,6.40
2017-08-09T00:06:06.692Z,7.83
2017-08-09T00:08:34.383Z,8.80
2017-08-09T00:11:02.007Z,8.50
2017-08-09T00:13:29.750Z,9.17
2017-08-09T00:15:57.409Z,8.10
2017-08-09T00:18:25.009Z,8.37
2017-08-09T00:20:52.623Z,8.43
2017-08-09T00:23:20.288Z,9.33
2017-08-09T00:25:47.900Z,9.63
2017-08-09T00:28:15.519Z,10.90
2017-08-09T00:30:43.186Z,10.07
2017-08-09T00:33:10.792Z,10.40
2017-08-09T00:35:38.416Z,11.40
2017-08-09T00:38:06.085Z,10.70
2017-08-09T00:40:33.711Z,9.63
2017-08-09T00:43:01.336Z,11.00
2017-08-09T00:45:29.012Z,10.50
2017-08-09T00:47:56.637Z,9.33
2017-08-09T00:50:24.276Z,11.23
2017-08-09T00:52:51.949Z,9.60
2017-08-09T00:55:19.559Z,10.30
2017-08-09T00:57:47.168Z,10.10
2017-08-09T01:00:14.895Z,10.80
2017-08-09T01:02:42.521Z,10.33
2017-08-09T01:05:10.133Z,10.93
2017-08-09T01:07:37.796Z,10.17
2017-08-09T01:10:05.401Z,8.80
2017-08-09T01:12:33.007Z,8.87
2017-08-09T01:15:00.661Z,9.87
2017-08-09T01:17:28.260Z,8.70
2017-08-09T01:19:55.885Z,10.47
2017-08-09T01:22:23.563Z,11.10
2017-08-09T01:24:51.180Z,11.60
2017-08-09T01:27:18.786Z,9.20
2017-08-09T01:29:46.454Z,11.57
2017-08-09T01:32:14.094Z,11.30
2017-08-09T01:34:41.693Z,12.00
2017-08-09T01:37:09.362Z,10.60
2017-08-09T01:39:36.986Z,10.90
2017-08-09T01:42:04.628Z,8.83
2017-08-09T01:44:32.316Z,10.17
2017-08-09T01:46:59.935Z,9.50
2017-08-09T01:49:27.552Z,9.70
2017-08-09T01:51:55.209Z,9.63
2017-08-09T01:54:22.832Z,8.77
2017-08-09T01:56:50.433Z,10.20
2017-08-09T01:59:19.893Z,11.13
2017-08-09T02:01:47.532Z,9.40
2017-08-09T02:04:15.148Z,8.60
2017-08-09T02:06:43.712Z,9.70
2017-08-09T02:09:11.336Z,10.63
2017-08-09T02:11:38.956Z,11.20
2017-08-09T02:14:06.645Z,11.33
2017-08-09T02:16:34.260Z,12.13
2017-08-09T02:19:01.888Z,11.70
2017-08-09T02:21:29.600Z,12.37
2017-08-09T02:23:57.215Z,11.73
2017-08-09T02:26:24.822Z,11.63
2017-08-09T02:28:52.493Z,10.53
2017-08-09T02:31:20.124Z,12.53
2017-08-09T02:33:47.758Z,12.37
2017-08-09T02:36:15.460Z,10.20
2017-08-09T02:38:43.084Z,12.27
2017-08-09T02:41:10.721Z,12.37
2017-08-09T02:43:38.416Z,12.07
2017-08-09T02:46:06.044Z,11.80
2017-08-09T02:48:33.676Z,11.17
2017-08-09T02:51:01.389Z,13.20
2017-08-09T02:53:29.007Z,13.03
2017-08-09T02:55:56.651Z,12.30
2017-08-09T02:58:24.326Z,11.73
2017-08-09T03:00:51.945Z,16.70
2017-08-09T03:03:19.576Z,12.80
2017-08-09T03:05:47.258Z,11.53
2017-08-09T03:08:14.882Z,12.03
2017-08-09T03:10:42.501Z,10.90
2017-08-09T03:13:10.184Z,12.97
2017-08-09T03:15:37.816Z,13.00
2017-08-09T03:18:05.429Z,12.10
2017-08-09T03:20:33.089Z,19.73
2017-08-09T03:23:00.708Z,11.50
2017-08-09T03:25:28.317Z,11.40
2017-08-09T03:27:55.974Z,13.90
2017-08-09T03:30:23.598Z,15.40
2017-08-09T03:32:51.226Z,13.80
2017-08-09T03:35:18.892Z,15.60
2017-08-09T03:37:46.517Z,12.47
2017-08-09T03:40:14.128Z,12.40
2017-08-09T03:42:41.831Z,11.30
2017-08-09T03:45:09.472Z,12.50
2017-08-09T03:47:37.105Z,11.33
2017-08-09T03:50:04.768Z,11.37
2017-08-09T03:52:32.392Z,11.43
2017-08-09T03:55:00.019Z,10.07
2017-08-09T03:57:27.689Z,10.60
2017-08-09T03:59:55.344Z,10.60
2017-08-09T04:02:22.975Z,8.50
2017-08-09T04:04:50.654Z,8.13
2017-08-09T04:07:18.280Z,8.53
2017-08-09T04:09:45.892Z,7.70
2017-08-09T04:12:13.558Z,8.33
2017-08-09T04:14:41.266Z,8.57
2017-08-09T04:17:08.888Z,8.20
2017-08-09T04:19:36.641Z,7.60
2017-08-09T04:22:04.267Z,7.77
2017-08-09T04:24:31.869Z,7.50
2017-08-09T04:26:59.540Z,8.33
2017-08-09T04:29:27.165Z,6.63
2017-08-09T04:31:54.776Z,8.20
2017-08-09T04:34:22.425Z,7.63
2017-08-09T04:36:50.044Z,7.30
2017-08-09T04:39:17.663Z,6.70
2017-08-09T04:41:45.338Z,6.93
2017-08-09T04:44:12.961Z,5.37
2017-08-09T04:46:40.562Z,6.83
2017-08-09T04:49:08.227Z,5.97
2017-08-09T04:51:35.828Z,6.93
2017-08-09T04:54:03.438Z,5.53
2017-08-09T04:56:31.114Z,5.47
2017-08-09T04:58:58.718Z,5.87
2017-08-09T05:01:26.420Z,5.67
2017-08-09T05:03:54.075Z,5.80
2017-08-09T05:06:21.681Z,4.73
2017-08-09T05:08:49.336Z,6.90
2017-08-09T05:11:17.009Z,4.73
2017-08-09T05:13:44.626Z,5.27
2017-08-09T05:16:12.227Z,4.90
2017-08-09T05:18:39.888Z,5.73
2017-08-09T05:21:07.511Z,4.30
2017-08-09T05:23:35.111Z,4.90
2017-08-09T05:26:02.800Z,4.33
2017-08-09T05:28:30.392Z,3.97
2017-08-09T05:30:58.016Z,4.77
2017-08-09T05:33:25.675Z,5.10
2017-08-09T05:35:53.316Z,4.33
2017-08-09T05:38:20.936Z,4.90
2017-08-09T05:40:48.596Z,5.33
2017-08-09T05:43:16.194Z,4.60
2017-08-09T05:45:43.795Z,4.77
2017-08-09T05:48:11.471Z,4.47
2017-08-09T05:50:39.100Z,4.73
2017-08-09T05:53:06.730Z,5.17
2017-08-09T05:55:34.413Z,4.70
2017-08-09T05:58:02.017Z,4.90
2017-08-09T06:00:29.636Z,4.70
2017-08-09T06:02:57.310Z,4.60
2017-08-09T06:05:25.021Z,4.80
2017-08-09T06:07:52.630Z,4.83
2017-08-09T06:10:20.298Z,4.30
2017-08-09T06:12:47.909Z,4.50
2017-08-09T06:15:15.598Z,4.83
2017-08-09T06:17:43.257Z,3.80
2017-08-09T06:20:10.882Z,4.37
2017-08-09T06:22:38.541Z,5.43
2017-08-09T06:25:06.226Z,5.53
2017-08-09T06:27:33.851Z,5.20
2017-08-09T06:30:01.462Z,3.97
2017-08-09T06:32:29.106Z,4.40
2017-08-09T06:34:56.730Z,6.10
2017-08-09T06:37:24.344Z,6.50
2017-08-09T06:39:52.013Z,4.10
2017-08-09T06:42:19.626Z,4.60
2017-08-09T06:44:47.244Z,4.80
2017-08-09T06:47:14.920Z,5.83
2017-08-09T06:49:42.558Z,4.43
2017-08-09T06:52:10.187Z,5.13
2017-08-09T06:54:37.905Z,6.50
2017-08-09T06:57:05.522Z,4.30
2017-08-09T06:59:33.144Z,5.77
2017-08-09T07:02:00.813Z,5.00
2017-08-09T07:04:28.429Z,5.10
2017-08-09T07:06:56.055Z,7.53
2017-08-09T07:09:23.744Z,5.83
2017-08-09T07:11:51.362Z,4.47
2017-08-09T07:14:18.972Z,4.55
2017-08-09T07:16:46.651Z,6.57
2017-08-09T07:19:14.273Z,5.53
2017-08-09T07:21:41.892Z,5.15
2017-08-09T07:24:09.560Z,5.70
2017-08-09T07:26:37.192Z,4.43
2017-08-09T07:29:04.813Z,5.87
2017-08-09T07:31:32.493Z,5.60
2017-08-09T07:34:00.100Z,5.45
2017-08-09T07:36:27.715Z,4.60
2017-08-09T07:38:55.399Z,3.93
2017-08-09T07:41:23.028Z,5.20
2017-08-09T07:43:50.634Z,6.35
2017-08-09T07:46:18.241Z,5.57
2017-08-09T07:48:45.816Z,5.07
2017-08-09T07:51:13.432Z,5.35
2017-08-09T07:53:41.061Z,5.75
2017-08-09T07:56:08.623Z,4.25
2017-08-09T07:58:36.173Z,5.07
2017-08-09T08:01:03.779Z,4.82
2017-08-09T08:03:31.337Z,4.12
2017-08-09T08:05:58.909Z,4.22
2017-08-09T08:08:26.549Z,5.00
2017-08-09T08:10:54.124Z,6.78
2017-08-09T08:13:21.776Z,4.40
2017-08-09T08:15:49.426Z,4.97
2017-08-09T08:18:16.999Z,5.30
2017-08-09T08:20:44.568Z,4.03
2017-08-09T08:23:12.205Z,4.35
2017-08-09T08:25:39.769Z,4.18
2017-08-09T08:28:07.359Z,5.90
2017-08-09T08:30:34.966Z,3.95
2017-08-09T08:33:02.564Z,4.70
2017-08-09T08:35:30.136Z,4.18
2017-08-09T08:37:57.766Z,5.10
2017-08-09T08:40:25.340Z,5.28
2017-08-09T08:42:52.918Z,5.20
2017-08-09T08:45:20.534Z,4.87
2017-08-09T08:47:48.100Z,5.55
2017-08-09T08:50:15.665Z,5.20
2017-08-09T08:52:43.292Z,5.00
2017-08-09T08:55:10.880Z,4.45
2017-08-09T08:57:38.446Z,4.37
2017-08-09T09:00:06.074Z,4.80
2017-08-09T09:02:33.639Z,4.65
2017-08-09T09:05:01.220Z,4.30
2017-08-09T09:07:28.842Z,4.62
2017-08-09T09:09:56.402Z,4.47
2017-08-09T09:12:23.962Z,5.37
2017-08-09T09:14:51.585Z,4.95
2017-08-09T09:17:19.153Z,5.07
2017-08-09T09:19:46.720Z,4.40
2017-08-09T09:22:14.361Z,3.83
2017-08-09T09:24:41.930Z,5.65
2017-08-09T09:27:09.500Z,5.05
2017-08-09T09:29:37.114Z,4.45
2017-08-09T09:32:04.682Z,4.95
2017-08-09T09:34:32.277Z,4.37
2017-08-09T09:36:59.917Z,5.40
2017-08-09T09:39:27.499Z,5.45
2017-08-09T09:41:55.073Z,5.05
2017-08-09T09:44:22.712Z,4.10
2017-08-09T09:46:50.277Z,4.68
2017-08-09T09:49:17.826Z,4.82
2017-08-09T09:51:45.460Z,4.15
2017-08-09T09:54:13.032Z,4.37
2017-08-09T09:56:40.604Z,4.80
2017-08-09T09:59:08.226Z,5.10
2017-08-09T10:01:35.805Z,4.90
2017-08-09T10:04:03.394Z,5.00
2017-08-09T10:06:31.023Z,4.40
2017-08-09T10:08:58.615Z,4.55
2017-08-09T10:11:26.185Z,5.00
2017-08-09T10:13:53.950Z,4.95
2017-08-09T10:16:21.758Z,4.95
2017-08-09T10:18:49.322Z,4.28
2017-08-09T10:21:17.018Z,4.95
2017-08-09T10:23:44.584Z,4.00
2017-08-09T10:26:12.143Z,4.35
2017-08-09T10:28:39.766Z,4.18
2017-08-09T10:31:07.427Z,3.75
2017-08-09T10:33:35.044Z,5.15
2017-08-09T10:36:02.666Z,5.32
2017-08-09T10:38:30.240Z,5.45
2017-08-09T10:40:57.891Z,4.60
2017-08-09T10:43:25.510Z,5.28
2017-08-09T10:45:53.091Z,4.45
2017-08-09T10:48:20.672Z,5.70
2017-08-09T10:50:48.316Z,4.07
2017-08-09T10:53:15.907Z,4.97
2017-08-09T10:55:43.559Z,5.03
2017-08-09T10:58:11.240Z,10.15
2017-08-09T11:00:38.805Z,4.05
2017-08-09T11:03:06.399Z,5.07
2017-08-09T11:05:34.030Z,5.70
2017-08-09T11:08:01.583Z,4.65
2017-08-09T11:10:29.159Z,5.03
2017-08-09T11:12:56.795Z,4.20
2017-08-09T11:15:24.450Z,4.18
2017-08-09T11:17:52.009Z,4.60
2017-08-09T11:20:19.643Z,4.87
2017-08-09T11:22:47.207Z,4.50
2017-08-09T11:25:14.772Z,4.35
2017-08-09T11:27:42.404Z,3.83
2017-08-09T11:30:09.983Z,4.47
2017-08-09T11:32:37.545Z,5.25
2017-08-09T11:35:05.149Z,4.15
2017-08-09T11:37:32.711Z,4.07
2017-08-09T11:40:00.273Z,5.55
2017-08-09T11:42:27.887Z,6.20
2017-08-09T11:44:55.464Z,5.95
2017-08-09T11:47:23.046Z,4.70
2017-08-09T11:49:50.771Z,4.22
2017-08-09T11:52:18.386Z,3.92
2017-08-09T11:54:45.949Z,4.40
2017-08-09T11:57:13.725Z,4.68
2017-08-09T11:59:41.314Z,4.30
2017-08-09T12:02:08.949Z,5.72
2017-08-09T12:04:36.745Z,5.47
2017-08-09T12:07:04.343Z,5.62
2017-08-09T12:09:31.997Z,4.57
2017-08-09T12:11:59.623Z,3.70
2017-08-09T12:14:27.186Z,4.32
2017-08-09T12:16:54.800Z,4.15
2017-08-09T12:19:27.345Z,4.95
2017-08-09T12:21:54.966Z,4.43
2017-08-09T12:24:22.526Z,3.92
2017-08-09T12:26:50.076Z,4.60
2017-08-09T12:29:17.694Z,5.22
2017-08-09T12:31:45.256Z,4.47
2017-08-09T12:34:12.828Z,4.97
2017-08-09T12:36:40.468Z,4.55
2017-08-09T12:39:08.049Z,4.60
2017-08-09T12:41:35.616Z,5.62
2017-08-09T12:44:03.240Z,4.43
2017-08-09T12:46:30.813Z,4.32
2017-08-09T12:48:58.443Z,4.45
2017-08-09T12:51:26.016Z,4.22
2017-08-09T12:53:53.570Z,4.75
2017-08-09T12:56:21.189Z,4.32
2017-08-09T12:58:48.754Z,4.55
2017-08-09T13:01:16.306Z,4.00
2017-08-09T13:03:43.932Z,5.75
2017-08-09T13:06:11.492Z,5.43
2017-08-09T13:08:39.054Z,5.32
2017-08-09T13:11:06.710Z,5.30
2017-08-09T13:13:34.314Z,4.73
2017-08-09T13:16:01.876Z,4.77
2017-08-09T13:18:29.479Z,5.23
2017-08-09T13:20:57.035Z,5.80
2017-08-09T13:23:24.591Z,5.70
2017-08-09T13:25:52.202Z,5.70
2017-08-09T13:28:19.756Z,5.17
2017-08-09T13:30:47.306Z,5.43
2017-08-09T13:33:14.915Z,6.23
2017-08-09T13:35:42.463Z,5.00
2017-08-09T13:38:10.079Z,5.47
2017-08-09T13:40:37.651Z,6.10
2017-08-09T13:43:05.222Z,6.07
2017-08-09T13:45:32.815Z,6.23
2017-08-09T13:48:00.382Z,5.20
2017-08-09T13:50:27.936Z,5.73
2017-08-09T13:52:55.558Z,6.13
2017-08-09T13:55:23.124Z,6.73
2017-08-09T13:57:50.743Z,6.97
2017-08-09T14:00:18.358Z,7.80
2017-08-09T14:02:45.950Z,6.90
2017-08-09T14:05:13.528Z,6.97
2017-08-09T14:07:41.158Z,7.07
2017-08-09T14:10:08.726Z,7.00
2017-08-09T14:12:36.297Z,7.00
2017-08-09T14:15:03.944Z,7.07
2017-08-09T14:17:31.519Z,7.13
2017-08-09T14:19:59.071Z,7.90
2017-08-09T14:22:26.725Z,7.13
2017-08-09T14:24:54.299Z,8.27
2017-08-09T14:27:21.873Z,7.37
2017-08-09T14:29:49.497Z,8.60
2017-08-09T14:32:17.064Z,7.57
2017-08-09T14:34:44.628Z,8.10
2017-08-09T14:37:12.227Z,7.93
2017-08-09T14:39:39.792Z,7.60
2017-08-09T14:42:08.188Z,7.10
2017-08-09T14:44:35.807Z,8.07
2017-08-09T14:47:03.359Z,7.50
2017-08-09T14:49:30.911Z,7.73
2017-08-09T14:51:58.547Z,8.03
2017-08-09T14:54:26.129Z,7.43
2017-08-09T14:56:53.681Z,8.00
2017-08-09T14:59:21.292Z,7.37
2017-08-09T15:01:48.845Z,8.50
2017-08-09T15:04:16.404Z,15.23
2017-08-09T15:06:44.029Z,6.77
2017-08-09T15:09:11.601Z,7.00
2017-08-09T15:11:39.176Z,7.33
2017-08-09T15:14:06.805Z,7.13
2017-08-09T15:16:34.434Z,7.80
2017-08-09T15:19:02.005Z,7.90
2017-08-09T15:21:29.649Z,8.33
2017-08-09T15:23:57.193Z,7.90
2017-08-09T15:26:24.756Z,8.17
2017-08-09T15:28:52.368Z,8.00
2017-08-09T15:31:19.930Z,7.70
2017-08-09T15:33:47.504Z,8.83
2017-08-09T15:36:15.185Z,6.87
2017-08-09T15:38:42.757Z,8.20
2017-08-09T15:41:10.319Z,7.20
2017-08-09T15:43:37.965Z,7.80
2017-08-09T15:46:05.527Z,8.80
2017-08-09T15:48:33.072Z,7.30
2017-08-09T15:51:00.684Z,8.73
2017-08-09T15:53:28.236Z,7.03
2017-08-09T15:55:55.825Z,7.47
2017-08-09T15:58:23.437Z,9.23
2017-08-09T16:00:50.991Z,7.90
2017-08-09T16:03:18.526Z,6.40
2017-08-09T16:05:46.140Z,7.20
2017-08-09T16:08:13.762Z,7.50
2017-08-09T16:10:41.337Z,6.77
2017-08-09T16:13:08.978Z,8.70
2017-08-09T16:15:36.542Z,7.80
2017-08-09T16:18:04.119Z,8.67
2017-08-09T16:20:31.729Z,8.40
2017-08-09T16:22:59.288Z,8.07
2017-08-09T16:25:26.825Z,7.17
2017-08-09T16:27:54.425Z,7.27
2017-08-09T16:30:22.004Z,8.63
2017-08-09T16:32:49.581Z,7.83
2017-08-09T16:35:17.214Z,6.97
2017-08-09T16:37:44.791Z,6.90
2017-08-09T16:40:12.356Z,7.60
2017-08-09T16:42:40.007Z,7.40
2017-08-09T16:45:07.567Z,8.07
2017-08-09T16:47:35.131Z,7.40
2017-08-09T16:50:02.753Z,17.00
2017-08-09T16:52:30.321Z,11.47
2017-08-09T16:54:57.894Z,11.20
2017-08-09T16:57:25.541Z,10.30
2017-08-09T16:59:53.103Z,8.10
2017-08-09T17:02:20.663Z,8.53
2017-08-09T17:04:48.286Z,9.33
2017-08-09T17:07:15.928Z,9.50
2017-08-09T17:09:43.479Z,8.30
2017-08-09T17:12:11.120Z,8.60
2017-08-09T17:14:38.805Z,8.70
2017-08-09T17:17:06.384Z,8.73
2017-08-09T17:19:34.075Z,9.27
2017-08-09T17:22:01.644Z,9.03
2017-08-09T17:24:29.217Z,8.90
2017-08-09T17:26:56.862Z,9.20
2017-08-09T17:29:24.415Z,11.30
2017-08-09T17:31:51.992Z,14.60
2017-08-09T17:34:19.633Z,12.20
2017-08-09T17:36:47.200Z,11.70
2017-08-09T17:39:14.750Z,12.50
2017-08-09T17:41:42.392Z,12.37
2017-08-09T17:44:09.977Z,10.70
2017-08-09T17:46:37.548Z,10.80
2017-08-09T17:49:05.162Z,11.60
2017-08-09T17:51:32.748Z,12.90
2017-08-09T17:54:00.328Z,11.80
2017-08-09T17:56:27.967Z,12.73
2017-08-09T17:58:55.532Z,10.40
2017-08-09T18:01:23.103Z,12.27
2017-08-09T18:03:50.718Z,11.90
2017-08-09T18:06:18.280Z,12.17
2017-08-09T18:08:45.837Z,12.37
2017-08-09T18:11:13.550Z,10.67
2017-08-09T18:13:41.110Z,9.10
2017-08-09T18:16:08.690Z,12.10
2017-08-09T18:18:36.313Z,13.40
2017-08-09T18:21:03.925Z,12.87
2017-08-09T18:23:31.504Z,11.10
2017-08-09T18:25:59.691Z,11.43
2017-08-09T18:28:27.275Z,11.27
2017-08-09T18:30:54.925Z,12.10
2017-08-09T18:33:22.566Z,11.40
2017-08-09T18:35:50.133Z,12.57
2017-08-09T18:38:17.744Z,12.83
2017-08-09T18:40:45.377Z,11.07
2017-08-09T18:43:12.938Z,14.90
2017-08-09T18:45:40.516Z,13.20
2017-08-09T18:48:08.133Z,11.23
2017-08-09T18:50:35.699Z,11.97
2017-08-09T18:53:03.369Z,11.30
2017-08-09T18:55:31.111Z,12.80
2017-08-09T18:57:58.684Z,11.83
2017-08-09T19:00:26.249Z,11.60
2017-08-09T19:02:53.900Z,13.50
2017-08-09T19:05:21.485Z,13.10
2017-08-09T19:07:49.083Z,13.00
2017-08-09T19:10:16.770Z,15.50
2017-08-09T19:12:44.339Z,13.40
2017-08-09T19:15:11.929Z,12.23
2017-08-09T19:17:39.563Z,12.50
2017-08-09T19:20:07.146Z,12.90
2017-08-09T19:22:34.745Z,13.70
2017-08-09T19:25:02.408Z,13.20
2017-08-09T19:27:29.963Z,13.43
2017-08-09T19:29:57.532Z,13.67
2017-08-09T19:32:25.154Z,14.23
2017-08-09T19:34:52.740Z,15.13
2017-08-09T19:37:20.304Z,14.00
2017-08-09T19:39:47.908Z,14.70
2017-08-09T19:42:15.475Z,13.40
2017-08-09T19:44:43.038Z,15.20
2017-08-09T19:47:10.660Z,12.10
2017-08-09T19:49:38.231Z,13.03
2017-08-09T19:52:05.796Z,11.93
2017-08-09T19:54:33.460Z,10.13
2017-08-09T19:57:01.146Z,12.33
2017-08-09T19:59:28.715Z,12.30
2017-08-09T20:01:56.367Z,11.00
2017-08-09T20:04:23.944Z,10.80
2017-08-09T20:06:51.524Z,10.90
2017-08-09T20:09:19.140Z,10.90
2017-08-09T20:11:46.699Z,9.67
2017-08-09T20:14:14.338Z,10.20
2017-08-09T20:16:41.950Z,10.80
2017-08-09T20:19:09.540Z,12.20
2017-08-09T20:21:37.128Z,10.70
2017-08-09T20:24:04.762Z,17.10
2017-08-09T20:26:32.349Z,12.10
2017-08-09T20:28:59.928Z,12.50
2017-08-09T20:31:27.560Z,11.47
2017-08-09T20:33:55.140Z,12.80
2017-08-09T20:36:22.694Z,10.00
2017-08-09T20:38:50.348Z,12.13
2017-08-09T20:41:17.916Z,13.00
2017-08-09T20:43:45.505Z,12.10
2017-08-09T20:46:13.191Z,11.00
2017-08-09T20:48:40.757Z,10.53
2017-08-09T20:51:08.329Z,10.40
2017-08-09T20:53:35.954Z,11.47
2017-08-09T20:56:03.528Z,13.23
2017-08-09T20:58:31.095Z,11.20
2017-08-09T21:00:58.732Z,11.80
2017-08-09T21:03:26.304Z,10.63
2017-08-09T21:05:53.888Z,12.10
2017-08-09T21:08:21.529Z,12.20
2017-08-09T21:10:49.113Z,12.20
2017-08-09T21:13:16.671Z,11.60
2017-08-09T21:15:44.278Z,12.57
2017-08-09T21:18:11.840Z,11.47
2017-08-09T21:20:39.406Z,12.67
2017-08-09T21:23:07.073Z,11.30
2017-08-09T21:25:34.684Z,10.73
2017-08-09T21:28:02.246Z,11.60
2017-08-09T21:30:29.893Z,11.80
2017-08-09T21:32:57.475Z,11.60
2017-08-09T21:35:25.029Z,10.63
2017-08-09T21:37:52.638Z,12.00
2017-08-09T21:40:20.218Z,12.50
2017-08-09T21:42:47.799Z,11.97
2017-08-09T21:45:15.436Z,13.37
2017-08-09T21:47:43.008Z,12.23
2017-08-09T21:50:10.581Z,12.60
2017-08-09T21:52:38.211Z,12.13
2017-08-09T21:55:05.770Z,14.20
2017-08-09T21:57:33.359Z,13.00
2017-08-09T22:00:01.001Z,14.43
2017-08-09T22:02:28.576Z,13.03
2017-08-09T22:04:56.157Z,12.20
2017-08-09T22:07:23.772Z,13.47
2017-08-09T22:09:51.334Z,14.50
2017-08-09T22:12:18.899Z,13.73
2017-08-09T22:14:46.545Z,13.23
2017-08-09T22:17:14.144Z,12.83
2017-08-09T22:19:41.744Z,13.30
2017-08-09T22:22:09.383Z,11.87
2017-08-09T22:24:36.957Z,15.03
2017-08-09T22:27:04.514Z,14.60
2017-08-09T22:29:32.130Z,14.40
2017-08-09T22:31:59.698Z,13.33
2017-08-09T22:34:27.257Z,13.43
2017-08-09T22:36:55.001Z,14.17
2017-08-09T22:39:22.562Z,14.73
2017-08-09T22:41:50.137Z,13.40
2017-08-09T22:44:17.763Z,14.07
2017-08-09T22:46:45.336Z,12.40
2017-08-09T22:49:12.940Z,13.57
2017-08-09T22:51:40.546Z,14.13
2017-08-09T22:54:08.097Z,13.20
2017-08-09T22:56:35.673Z,15.33
2017-08-09T22:59:03.307Z,15.17
2017-08-09T23:01:30.886Z,14.90
2017-08-09T23:03:58.453Z,14.63
2017-08-09T23:06:26.091Z,15.50
2017-08-09T23:08:53.672Z,14.47
2017-08-09T23:11:21.249Z,14.67
2017-08-09T23:13:48.870Z,14.27
2017-08-09T23:16:16.462Z,14.00
2017-08-09T23:18:44.024Z,13.60
2017-08-09T23:21:11.632Z,13.70
2017-08-09T23:23:39.203Z,14.43
2017-08-09T23:26:07.079Z,13.97
2017-08-09T23:28:34.827Z,13.83
2017-08-09T23:31:02.395Z,14.00
2017-08-09T23:33:30.135Z,15.30
2017-08-09T23:35:57.772Z,12.60
2017-08-09T23:38:25.334Z,15.40
2017-08-09T23:40:52.937Z,15.10
2017-08-09T23:43:20.564Z,14.50
2017-08-09T23:45:48.123Z,16.10
2017-08-09T23:48:15.708Z,16.43
2017-08-09T23:50:43.375Z,14.80
2017-08-09T23:53:10.947Z,16.10
2017-08-09T23:55:38.506Z,15.57
2017-08-09T23:58:06.117Z,16.37
